createdAt,value
2017-06-23T14:16:58.662Z,400
2017-06-23T14:18:20.564Z,395
2017-06-23T14:19:42.170Z,395
2017-06-23T14:21:04.666Z,395
2017-06-23T14:22:27.410Z,380
2017-06-23T14:23:48.964Z,365
2017-06-23T14:25:11.430Z,355
2017-06-23T14:26:33.323Z,365
2017-06-23T14:27:55.500Z,365
2017-06-23T14:29:17.718Z,375
2017-06-23T14:30:40.307Z,390
2017-06-23T14:32:02.592Z,400
2017-06-23T14:33:25.391Z,410
2017-06-23T14:34:47.566Z,415
2017-06-23T14:36:09.730Z,440
2017-06-23T14:37:31.895Z,440
2017-06-23T14:38:54.385Z,415
2017-06-23T14:40:16.224Z,405
2017-06-23T14:41:38.054Z,415
2017-06-23T14:42:59.891Z,400
2017-06-23T14:44:22.396Z,375
2017-06-23T14:45:44.651Z,355
2017-06-23T14:47:06.490Z,350
2017-06-23T14:48:29.069Z,375
2017-06-23T14:49:51.166Z,410
2017-06-23T14:51:13.173Z,425
2017-06-23T14:52:35.312Z,425
2017-06-23T14:53:57.614Z,415
2017-06-23T14:55:20.081Z,370
2017-06-23T14:56:41.784Z,330
2017-06-23T14:58:04.272Z,320
2017-06-23T14:59:26.880Z,305
2017-06-23T15:00:49.141Z,300
2017-06-23T15:02:11.866Z,295
2017-06-23T15:03:34.345Z,290
2017-06-23T15:04:56.859Z,255
2017-06-23T15:06:19.589Z,235
2017-06-23T15:07:42.078Z,230
2017-06-23T15:09:03.803Z,240
2017-06-23T15:10:25.686Z,255
2017-06-23T15:11:48.464Z,250
2017-06-23T15:13:10.974Z,240
2017-06-23T15:14:33.553Z,245
2017-06-23T15:15:56.035Z,270
2017-06-23T15:17:18.146Z,275
2017-06-23T15:18:40.686Z,280
2017-06-23T15:20:02.842Z,290
2017-06-23T15:21:25.347Z,285
2017-06-23T15:22:47.863Z,270
2017-06-23T15:24:09.692Z,250
2017-06-23T15:25:31.850Z,240
2017-06-23T15:26:54.504Z,235
2017-06-23T15:28:17.102Z,245
2017-06-23T15:29:38.942Z,250
2017-06-23T15:31:01.123Z,270
2017-06-23T15:32:23.339Z,285
2017-06-23T15:33:45.140Z,290
2017-06-23T15:35:07.290Z,285
2017-06-23T15:36:29.435Z,280
2017-06-23T15:37:51.578Z,285
2017-06-23T15:39:14.463Z,295
2017-06-23T15:40:36.620Z,310
2017-06-23T15:41:57.879Z,325
2017-06-23T15:43:20.130Z,325
2017-06-23T15:44:42.474Z,315
2017-06-23T15:46:04.625Z,295
2017-06-23T15:47:26.489Z,280
2017-06-23T15:48:48.639Z,265
2017-06-23T15:50:11.124Z,250
2017-06-23T15:51:33.306Z,245
2017-06-23T15:52:55.857Z,275
2017-06-23T15:54:18.315Z,295
2017-06-23T15:55:41.196Z,315
2017-06-23T15:57:03.062Z,320
2017-06-23T15:58:25.539Z,305
2017-06-23T15:59:46.790Z,285
2017-06-23T16:01:09.178Z,255
2017-06-23T16:02:31.662Z,245
2017-06-23T16:03:53.865Z,245
2017-06-23T16:05:15.737Z,225
2017-06-23T16:06:37.938Z,230
2017-06-23T16:08:00.134Z,245
2017-06-23T16:09:22.306Z,240
2017-06-23T16:10:44.470Z,250
2017-06-23T16:12:06.873Z,255
2017-06-23T16:13:28.073Z,235
2017-06-23T16:14:50.533Z,250
2017-06-23T16:16:12.993Z,270
2017-06-23T16:17:35.562Z,260
2017-06-23T16:18:57.764Z,265
2017-06-23T16:20:19.613Z,260
2017-06-23T16:21:42.091Z,260
2017-06-23T16:23:04.633Z,275
2017-06-23T16:24:27.098Z,270
2017-06-23T16:25:49.573Z,255
2017-06-23T16:27:12.029Z,230
2017-06-23T16:28:34.895Z,200
2017-06-23T16:29:57.383Z,180
2017-06-23T16:31:19.549Z,180
2017-06-23T16:32:42.050Z,175
2017-06-23T16:34:04.869Z,170
2017-06-23T16:35:27.102Z,170
2017-06-23T16:36:49.604Z,200
2017-06-23T16:38:11.823Z,205
2017-06-23T16:39:34.331Z,195
2017-06-23T16:40:56.923Z,190
2017-06-23T16:42:19.386Z,185
2017-06-23T16:43:41.888Z,195
2017-06-23T16:45:04.384Z,200
2017-06-23T16:46:26.845Z,195
2017-06-23T16:47:48.744Z,195
2017-06-23T16:49:10.896Z,195
2017-06-23T16:50:33.302Z,195
2017-06-23T16:51:54.818Z,190
2017-06-23T16:53:16.324Z,165
2017-06-23T16:54:38.175Z,140
2017-06-23T16:56:00.703Z,120
2017-06-23T16:57:22.864Z,110
2017-06-23T16:58:45.333Z,105
2017-06-23T17:00:07.614Z,115
2017-06-23T17:01:30.207Z,145
2017-06-23T17:02:51.734Z,165
2017-06-23T17:04:13.973Z,180
2017-06-23T17:05:35.813Z,180
2017-06-23T17:06:58.292Z,170
2017-06-23T17:08:20.765Z,160
2017-06-23T17:09:43.281Z,160
2017-06-23T17:11:05.204Z,165
2017-06-23T17:12:46.800Z,145
2017-06-23T17:14:08.944Z,115
2017-06-23T17:15:30.840Z,95
2017-06-23T17:16:53.312Z,85
2017-06-23T17:18:15.577Z,70
2017-06-23T17:19:38.045Z,70
2017-06-23T17:21:00.299Z,90
2017-06-23T17:22:22.766Z,120
2017-06-23T17:23:45.254Z,140
2017-06-23T17:25:07.161Z,150
2017-06-23T17:26:29.001Z,140
2017-06-23T17:27:51.165Z,125
2017-06-23T17:29:13.664Z,105
2017-06-23T17:30:35.814Z,100
2017-06-23T17:31:58.252Z,95
2017-06-23T17:33:20.387Z,105
2017-06-23T17:34:43.103Z,115
2017-06-23T17:36:05.294Z,115
2017-06-23T17:37:27.437Z,115
2017-06-23T17:38:49.362Z,145
2017-06-23T17:40:11.862Z,115
2017-06-23T17:41:34.126Z,85
2017-06-23T17:42:55.964Z,60
2017-06-23T17:44:17.905Z,65
2017-06-23T17:45:39.763Z,50
2017-06-23T17:47:02.288Z,35
2017-06-23T17:48:24.424Z,30
2017-06-23T17:49:46.998Z,25
2017-06-23T17:51:09.394Z,20
2017-06-23T17:52:31.905Z,15
2017-06-23T17:53:54.377Z,15
2017-06-23T17:55:15.883Z,15
2017-06-23T17:56:38.635Z,20
2017-06-23T17:58:01.108Z,20
2017-06-23T17:59:23.579Z,15
2017-06-23T18:00:44.814Z,15
2017-06-23T18:02:07.231Z,25
2017-06-23T18:03:28.892Z,25
2017-06-23T18:04:51.050Z,20
2017-06-23T18:06:13.744Z,15
2017-06-23T18:07:36.581Z,10
2017-06-23T18:08:58.727Z,10
2017-06-23T18:10:21.246Z,10
2017-06-23T18:11:43.441Z,10
2017-06-23T18:13:05.618Z,15
2017-06-23T18:14:27.916Z,15
2017-06-23T18:15:50.394Z,15
2017-06-23T18:17:12.354Z,25
2017-06-23T18:18:34.868Z,20
2017-06-23T18:19:57.073Z,20
2017-06-23T18:21:18.923Z,35
2017-06-23T18:22:41.113Z,45
2017-06-23T18:24:02.987Z,45
2017-06-23T18:25:24.574Z,55
2017-06-23T18:26:46.744Z,50
2017-06-23T18:28:08.645Z,45
2017-06-23T18:29:31.094Z,40
2017-06-23T18:30:53.263Z,30
2017-06-23T18:32:15.745Z,30
2017-06-23T18:33:37.840Z,25
2017-06-23T18:35:00.590Z,25
2017-06-23T18:36:23.107Z,35
2017-06-23T18:37:45.414Z,35
2017-06-23T18:39:07.596Z,40
2017-06-23T18:40:30.326Z,40
2017-06-23T18:41:52.185Z,45
2017-06-23T18:43:14.666Z,40
2017-06-23T18:44:36.859Z,35
2017-06-23T18:45:59.411Z,30
2017-06-23T18:47:21.387Z,35
2017-06-23T18:48:43.861Z,30
2017-06-23T18:50:06.546Z,30
2017-06-23T18:51:29.261Z,30
2017-06-23T18:52:51.759Z,25
2017-06-23T18:54:13.954Z,20
2017-06-23T18:55:36.463Z,15
2017-06-23T18:56:59.304Z,15
2017-06-23T18:58:21.528Z,15
2017-06-23T18:59:43.997Z,10
2017-06-23T19:01:06.263Z,5
2017-06-23T19:02:29.043Z,5
2017-06-23T19:03:51.230Z,5
2017-06-23T19:05:13.767Z,5
2017-06-23T19:06:35.346Z,10
2017-06-23T19:07:57.916Z,10
2017-06-23T19:09:20.418Z,10
2017-06-23T19:10:42.284Z,15
2017-06-23T19:12:04.555Z,10
2017-06-23T19:13:27.465Z,10
2017-06-23T19:14:49.978Z,15
2017-06-23T19:16:12.194Z,15
2017-06-23T19:17:34.705Z,10
2017-06-23T19:18:57.551Z,10
2017-06-23T19:20:20.040Z,10
2017-06-23T19:21:42.219Z,10
2017-06-23T19:23:04.740Z,5
2017-06-23T19:24:27.175Z,5
2017-06-23T19:25:49.119Z,5
2017-06-23T19:27:11.729Z,5
2017-06-23T19:28:34.411Z,5
2017-06-23T19:29:56.917Z,5
2017-06-23T19:31:19.507Z,5
2017-06-23T19:32:41.706Z,5
2017-06-23T19:34:04.185Z,5
2017-06-23T19:35:26.729Z,5
2017-06-23T19:36:49.196Z,5
2017-06-23T19:38:11.456Z,5
2017-06-23T19:39:33.956Z,0
2017-06-23T19:40:56.722Z,0
2017-06-23T19:42:18.878Z,0
2017-06-23T19:43:41.402Z,0
2017-06-23T19:45:03.333Z,0
2017-06-23T19:46:26.218Z,0
2017-06-23T19:47:48.717Z,0
2017-06-23T19:49:10.958Z,0
2017-06-23T19:50:33.223Z,0
2017-06-23T19:51:56.084Z,0
2017-06-23T19:53:18.280Z,0
2017-06-23T19:54:40.474Z,0
2017-06-23T19:56:03.058Z,0
2017-06-23T19:57:25.560Z,0
2017-06-23T19:58:47.488Z,0
2017-06-23T20:00:10.068Z,0
2017-06-23T20:01:32.222Z,0
2017-06-23T20:02:55.142Z,0
2017-06-23T20:04:17.345Z,0
2017-06-23T20:05:38.958Z,0
2017-06-23T20:07:00.838Z,0
2017-06-23T20:08:23.637Z,0
2017-06-23T20:09:46.120Z,0
2017-06-23T20:11:08.619Z,0
2017-06-23T20:12:31.099Z,0
2017-06-23T20:13:53.627Z,0
2017-06-23T20:15:15.804Z,0
2017-06-23T20:16:38.488Z,0
2017-06-23T20:18:00.965Z,0
2017-06-23T20:19:23.406Z,0
2017-06-23T20:20:45.895Z,0
2017-06-23T20:22:07.754Z,0
2017-06-23T20:23:29.315Z,0
2017-06-23T20:24:52.179Z,0
2017-06-23T20:26:14.698Z,0
2017-06-23T20:27:37.323Z,0
2017-06-23T20:28:59.815Z,0
2017-06-23T20:30:21.954Z,0
2017-06-23T20:31:43.465Z,0
2017-06-23T20:33:05.656Z,0
2017-06-23T20:34:27.520Z,0
2017-06-23T20:35:49.938Z,0
2017-06-23T20:37:12.401Z,0
2017-06-23T20:38:34.654Z,0
2017-06-23T20:39:56.865Z,0
2017-06-23T20:41:19.056Z,0
2017-06-23T20:42:41.304Z,0
2017-06-23T20:44:03.798Z,0
2017-06-23T20:45:26.016Z,0
2017-06-23T20:46:47.957Z,0
2017-06-23T20:48:10.575Z,0
2017-06-23T20:49:32.723Z,0
2017-06-23T20:50:54.585Z,0
2017-06-23T20:52:17.374Z,0
2017-06-23T20:53:38.957Z,0
2017-06-23T20:55:01.164Z,0
2017-06-23T20:56:23.328Z,0
2017-06-23T20:57:45.734Z,0
2017-06-23T20:59:08.205Z,0
2017-06-23T21:00:30.735Z,0
2017-06-23T21:01:52.268Z,0
2017-06-23T21:03:15.033Z,0
2017-06-23T21:04:37.606Z,0
2017-06-23T21:06:00.103Z,0
2017-06-23T21:07:22.023Z,0
2017-06-23T21:08:43.921Z,0
2017-06-23T21:10:06.395Z,0
2017-06-23T21:11:28.547Z,0
2017-06-23T21:12:51.028Z,0
2017-06-23T21:14:13.125Z,0
2017-06-23T21:15:35.112Z,0
2017-06-23T21:16:57.291Z,0
2017-06-23T21:18:19.742Z,0
2017-06-23T21:19:42.150Z,0
2017-06-23T21:21:04.726Z,0
2017-06-23T21:22:27.053Z,0
2017-06-23T21:23:49.210Z,0
2017-06-23T21:25:12.237Z,0
2017-06-23T21:26:34.496Z,0
2017-06-23T21:27:56.625Z,0
2017-06-23T21:29:18.801Z,0
2017-06-23T21:30:41.655Z,0
2017-06-23T21:32:03.788Z,0
2017-06-23T21:33:25.972Z,0
2017-06-23T21:34:48.453Z,0
2017-06-23T21:36:10.376Z,0
2017-06-23T21:37:32.244Z,0
2017-06-23T21:38:54.157Z,0
2017-06-23T21:40:16.644Z,0
2017-06-23T21:41:39.065Z,0
2017-06-23T21:43:01.595Z,0
2017-06-23T21:44:23.744Z,0
2017-06-23T21:45:45.954Z,0
2017-06-23T21:47:08.685Z,0
2017-06-23T21:48:31.134Z,0
2017-06-23T21:49:53.594Z,0
2017-06-23T21:51:15.746Z,0
2017-06-23T21:52:38.423Z,0
2017-06-23T21:54:00.553Z,0
2017-06-23T21:55:22.113Z,0
2017-06-23T21:56:44.560Z,0
2017-06-23T21:58:06.735Z,0
2017-06-23T21:59:28.672Z,0
2017-06-23T22:00:51.143Z,0
2017-06-23T22:02:13.296Z,0
2017-06-23T22:03:35.703Z,0
2017-06-23T22:04:57.855Z,0
2017-06-23T22:06:19.995Z,0
2017-06-23T22:07:42.520Z,0
2017-06-23T22:09:05.265Z,0
2017-06-23T22:10:27.500Z,0
2017-06-23T22:11:49.328Z,0
2017-06-23T22:13:11.619Z,0
2017-06-23T22:14:34.014Z,0
2017-06-23T22:15:56.174Z,0
2017-06-23T22:17:17.678Z,0
2017-06-23T22:18:39.854Z,0
2017-06-23T22:20:01.951Z,0
2017-06-23T22:21:24.344Z,0
2017-06-23T22:22:46.151Z,0
2017-06-23T22:24:08.387Z,0
2017-06-23T22:25:30.956Z,0
2017-06-23T22:26:53.115Z,0
2017-06-23T22:28:15.252Z,0
2017-06-23T22:29:37.104Z,0
2017-06-23T22:30:59.564Z,0
2017-06-23T22:32:21.716Z,0
2017-06-23T22:33:44.184Z,0
2017-06-23T22:35:05.703Z,0
2017-06-23T22:36:27.915Z,0
2017-06-23T22:37:50.046Z,0
2017-06-23T22:39:12.623Z,0
2017-06-23T22:40:34.455Z,0
2017-06-23T22:41:57.165Z,0
2017-06-23T22:43:19.669Z,0
2017-06-23T22:44:41.853Z,0
2017-06-23T22:46:03.440Z,0
2017-06-23T22:47:25.932Z,0
2017-06-23T22:48:48.154Z,0
2017-06-23T22:50:10.303Z,0
2017-06-23T22:51:32.161Z,0
2017-06-23T22:52:54.273Z,0
2017-06-23T22:54:16.731Z,0
2017-06-23T22:55:38.568Z,0
2017-06-23T22:57:00.724Z,0
2017-06-23T22:58:22.518Z,0
2017-06-23T22:59:44.341Z,0
2017-06-23T23:01:06.243Z,0
2017-06-23T23:02:27.745Z,0
2017-06-23T23:03:50.214Z,0
2017-06-23T23:05:12.814Z,0
2017-06-23T23:06:34.964Z,0
2017-06-23T23:07:56.771Z,0
2017-06-23T23:09:18.643Z,0
2017-06-23T23:10:40.773Z,0
2017-06-23T23:12:02.994Z,0
2017-06-23T23:13:24.928Z,0
2017-06-23T23:14:47.744Z,0
2017-06-23T23:16:09.864Z,0
2017-06-23T23:17:31.673Z,0
2017-06-23T23:18:54.116Z,0
2017-06-23T23:20:16.930Z,0
2017-06-23T23:21:38.461Z,0
2017-06-23T23:23:00.269Z,0
2017-06-23T23:24:22.084Z,0
2017-06-23T23:25:44.254Z,0
2017-06-23T23:27:06.373Z,0
2017-06-23T23:28:28.802Z,0
2017-06-23T23:29:50.589Z,0
2017-06-23T23:31:13.083Z,0
2017-06-23T23:32:35.514Z,0
2017-06-23T23:33:57.703Z,0
2017-06-23T23:35:19.623Z,0
2017-06-23T23:36:42.070Z,0
2017-06-23T23:38:03.960Z,0
2017-06-23T23:39:26.122Z,0
2017-06-23T23:40:48.235Z,0
2017-06-23T23:42:10.674Z,0
2017-06-23T23:43:32.891Z,0
2017-06-23T23:44:54.690Z,0
2017-06-23T23:46:15.964Z,0
2017-06-23T23:47:38.383Z,0
2017-06-23T23:49:00.519Z,0
2017-06-23T23:50:22.471Z,0
2017-06-23T23:51:45.040Z,0
2017-06-23T23:53:07.549Z,0
2017-06-23T23:54:28.730Z,0
2017-06-23T23:55:50.310Z,0
2017-06-23T23:57:12.882Z,0
2017-06-23T23:58:35.652Z,0
2017-06-23T23:59:57.447Z,0
